GHCO2: Honey Creek nr South West City, MO

Data processed at Sun Apr 30 2017 22:44


All information presented herein is the property of the government of the United States of America and may be revised or deleted at any time without prior notice.
Dissemination of this information without the expressed written consent of the Public Affairs Office, Tulsa District U.S. Army Corps of Engineers is strictly prohibited.
These data are gathered electronically and, as presented, have not undergone any form of quality control. These data are not guaranteed to be valid or correct.
Go to home page.
Go to station list.
Go to station map.

Upstream stations:

Downstream station:
Previous Day
Next Day
Current Day
    
SHEF ID:       GHCO2     Honey Creek near South West City
STATION TYPE:  

                STAGE  RIV-FLOW  BAT-LOAD
                   ft       cfs      volt
              Ccp-Rev   Ccp-Rev   Ccp-Rev
(US/Central)
04/30 00:00     10.05      2031     12.24
04/30 01:00     10.68      2441     12.42
04/30 02:00     11.14      2827     12.36
04/30 03:00     11.29      2975     12.42
04/30 04:00     11.23      2913     12.36
04/30 05:00     10.92      2634     12.42
04/30 06:00     10.37      2219     12.36
04/30 07:00      9.90      1940     12.42
04/30 08:00      9.36      1666     12.42
04/30 09:00      8.92      1477     12.36
04/30 10:00      8.61      1357     12.42
04/30 11:00      8.36      1264     12.42
04/30 12:00      8.15      1186     12.48
04/30 13:00      7.96      1120     12.54
04/30 14:00      7.78      1057     12.60
04/30 15:00      7.62      1005     12.65
04/30 16:00      7.47       953     12.60
04/30 17:00      7.36       903     12.54
04/30 18:00      7.24       846     12.48
04/30 19:00      7.11       792     12.48
04/30 20:00      7.05       763     12.42
04/30 21:00      6.98       735     12.42
04/30 22:00      ----      ----     12.42
04/30 23:00      ----      ----      ----